Time,TemperatureF,DewpointF,PressureIn,WindDirection,WindDirectionDegrees,WindSpeedMPH,WindSpeedGustMPH,Humidity,HourlyPrecipIn,Conditions,Clouds,dailyrainin,SoftwareType,DateUTC
2017-07-27 00:01:00,71.9,70.1,30.03,SE,144,0.0,0.0,94,0.00,,,0.00,VWS V15.00,2017-07-27 04:01:00,
2017-07-27 00:10:00,71.8,70.0,30.03,SE,144,0.0,5.0,94,0.00,,,0.00,VWS V15.00,2017-07-27 04:10:00,
2017-07-27 00:20:00,71.7,69.9,30.04,SE,144,0.0,0.0,94,0.00,,,0.00,VWS V15.00,2017-07-27 04:20:00,
2017-07-27 00:30:00,71.5,69.7,30.04,SE,144,0.0,0.0,94,0.00,,,0.00,VWS V15.00,2017-07-27 04:30:00,
2017-07-27 00:40:00,71.3,69.8,30.04,SE,144,0.0,0.0,95,0.00,,,0.00,VWS V15.00,2017-07-27 04:40:00,
2017-07-27 00:50:00,71.0,69.5,30.03,SE,144,0.0,0.0,95,0.00,,,0.00,VWS V15.00,2017-07-27 04:50:00,
2017-07-27 01:00:00,70.7,69.2,30.03,SE,144,0.0,0.0,95,0.00,,,0.00,VWS V15.00,2017-07-27 05:00:00,
2017-07-27 01:10:00,70.6,69.4,30.03,SE,144,0.0,0.0,96,0.00,,,0.00,VWS V15.00,2017-07-27 05:10:00,
2017-07-27 01:20:00,70.6,69.4,30.02,SE,144,0.0,0.0,96,0.00,,,0.00,VWS V15.00,2017-07-27 05:20:00,
2017-07-27 01:30:00,70.5,69.3,30.02,SE,144,0.0,0.0,96,0.00,,,0.00,VWS V15.00,2017-07-27 05:30:00,
2017-07-27 01:40:00,70.4,69.2,30.02,SE,144,0.0,0.0,96,0.00,,,0.00,VWS V15.00,2017-07-27 05:40:00,
2017-07-27 01:50:00,70.3,69.1,30.02,SE,144,0.0,0.0,96,0.00,,,0.00,VWS V15.00,2017-07-27 05:50:00,
2017-07-27 02:00:00,70.2,69.0,30.02,SE,144,0.0,0.0,96,0.00,,,0.00,VWS V15.00,2017-07-27 06:00:00,
2017-07-27 02:10:00,70.0,68.8,30.01,SE,144,0.0,0.0,96,0.00,,,0.00,VWS V15.00,2017-07-27 06:10:00,
2017-07-27 02:20:00,69.9,68.7,30.00,SE,144,0.0,0.0,96,0.00,,,0.00,VWS V15.00,2017-07-27 06:20:00,
2017-07-27 02:30:00,69.7,68.5,30.00,SE,144,0.0,0.0,96,0.00,,,0.00,VWS V15.00,2017-07-27 06:30:00,
2017-07-27 02:40:00,69.6,68.4,30.00,SE,144,0.0,0.0,96,0.00,,,0.00,VWS V15.00,2017-07-27 06:40:00,
2017-07-27 02:50:00,69.4,68.5,30.00,SE,144,0.0,0.0,97,0.00,,,0.00,VWS V15.00,2017-07-27 06:50:00,
2017-07-27 03:01:00,69.5,68.6,29.99,SE,144,0.0,0.0,97,0.00,,,0.00,VWS V15.00,2017-07-27 07:01:00,
2017-07-27 03:10:00,69.5,68.3,29.98,SE,144,0.0,2.0,96,0.00,,,0.00,VWS V15.00,2017-07-27 07:10:00,
2017-07-27 03:20:00,69.3,68.1,29.98,SE,144,0.0,0.0,96,0.00,,,0.00,VWS V15.00,2017-07-27 07:20:00,
2017-07-27 03:30:00,69.1,68.2,29.98,SE,144,0.0,0.0,97,0.00,,,0.00,VWS V15.00,2017-07-27 07:30:00,
2017-07-27 03:40:00,68.8,67.6,29.98,SE,144,0.0,0.0,96,0.00,,,0.00,VWS V15.00,2017-07-27 07:40:00,
2017-07-27 03:50:00,68.6,67.7,29.98,SE,144,0.0,0.0,97,0.00,,,0.00,VWS V15.00,2017-07-27 07:50:00,
2017-07-27 04:00:00,68.5,67.6,29.98,SE,144,0.0,0.0,97,0.00,,,0.00,VWS V15.00,2017-07-27 08:00:00,
2017-07-27 04:10:00,68.5,67.6,29.97,SE,144,0.0,0.0,97,0.00,,,0.00,VWS V15.00,2017-07-27 08:10:00,
2017-07-27 04:20:00,68.4,67.5,29.98,SE,144,0.0,0.0,97,0.00,,,0.00,VWS V15.00,2017-07-27 08:20:00,
2017-07-27 04:30:00,68.2,67.6,29.97,SE,144,0.0,0.0,98,0.00,,,0.00,VWS V15.00,2017-07-27 08:30:00,
2017-07-27 04:40:00,68.0,67.4,29.97,SE,144,0.0,0.0,98,0.00,,,0.00,VWS V15.00,2017-07-27 08:40:00,
2017-07-27 04:50:00,67.9,67.3,29.98,SE,144,0.0,0.0,98,0.00,,,0.00,VWS V15.00,2017-07-27 08:50:00,
2017-07-27 05:00:00,67.7,67.1,29.98,SE,144,0.0,0.0,98,0.00,,,0.00,VWS V15.00,2017-07-27 09:00:00,
2017-07-27 05:10:00,67.9,67.3,29.97,SE,144,0.0,0.0,98,0.00,,,0.00,VWS V15.00,2017-07-27 09:10:00,
2017-07-27 05:20:00,67.9,67.3,29.97,SE,144,0.0,0.0,98,0.00,,,0.00,VWS V15.00,2017-07-27 09:20:00,
2017-07-27 05:30:00,67.7,67.1,29.97,SE,144,0.0,0.0,98,0.00,,,0.00,VWS V15.00,2017-07-27 09:30:00,
2017-07-27 05:40:00,67.8,67.2,29.98,SE,144,0.0,0.0,98,0.00,,,0.00,VWS V15.00,2017-07-27 09:40:00,
2017-07-27 05:50:00,67.8,67.2,29.97,SE,144,0.0,0.0,98,0.00,,,0.00,VWS V15.00,2017-07-27 09:50:00,
2017-07-27 06:00:00,67.8,67.2,29.98,SE,144,0.0,0.0,98,0.00,,,0.00,VWS V15.00,2017-07-27 10:00:00,
2017-07-27 06:10:00,67.9,67.3,29.98,SE,144,0.0,0.0,98,0.00,,,0.00,VWS V15.00,2017-07-27 10:10:00,
2017-07-27 06:20:00,68.0,67.7,29.98,SE,144,0.0,0.0,99,0.00,,,0.00,VWS V15.00,2017-07-27 10:20:00,
2017-07-27 06:30:00,68.0,67.7,29.98,SE,144,0.0,0.0,99,0.00,,,0.00,VWS V15.00,2017-07-27 10:30:00,
2017-07-27 06:40:00,68.2,67.9,29.98,SE,144,0.0,0.0,99,0.00,,,0.00,VWS V15.00,2017-07-27 10:40:00,
2017-07-27 06:50:00,68.4,68.1,29.98,SE,144,0.0,0.0,99,0.00,,,0.00,VWS V15.00,2017-07-27 10:50:00,
2017-07-27 07:00:00,68.8,68.5,29.97,SE,144,0.0,0.0,99,0.00,,,0.00,VWS V15.00,2017-07-27 11:00:00,
2017-07-27 07:10:00,69.2,68.9,29.97,SE,144,0.0,0.0,99,0.00,,,0.00,VWS V15.00,2017-07-27 11:10:00,
2017-07-27 07:20:00,69.6,69.3,29.97,SE,144,0.0,1.0,99,0.00,,,0.00,VWS V15.00,2017-07-27 11:20:00,
2017-07-27 07:30:00,69.9,69.6,29.97,SE,144,0.0,4.0,99,0.00,,,0.00,VWS V15.00,2017-07-27 11:30:00,
2017-07-27 07:40:00,70.6,70.0,29.97,SE,144,0.0,0.0,98,0.00,,,0.00,VWS V15.00,2017-07-27 11:40:00,
2017-07-27 07:50:00,71.5,70.6,29.97,SE,144,0.0,1.0,97,0.00,,,0.00,VWS V15.00,2017-07-27 11:50:00,
2017-07-27 08:00:00,72.0,70.8,29.97,SE,144,0.0,4.0,96,0.00,,,0.00,VWS V15.00,2017-07-27 12:00:00,
2017-07-27 08:10:00,72.1,70.3,29.97,South,187,0.0,9.0,94,0.00,,,0.00,VWS V15.00,2017-07-27 12:10:00,
2017-07-27 08:20:00,72.4,70.6,29.97,South,181,1.0,5.0,94,0.00,,,0.00,VWS V15.00,2017-07-27 12:20:00,
2017-07-27 08:30:00,72.6,70.5,29.97,South,184,3.0,4.0,93,0.00,,,0.00,VWS V15.00,2017-07-27 12:30:00,
2017-07-27 08:40:00,73.1,70.6,29.96,South,189,0.0,6.0,92,0.00,,,0.00,VWS V15.00,2017-07-27 12:40:00,
2017-07-27 08:50:00,73.9,71.4,29.96,South,190,0.0,6.0,92,0.00,,,0.00,VWS V15.00,2017-07-27 12:50:00,
2017-07-27 09:00:00,74.4,71.3,29.96,SSW,194,0.0,11.0,90,0.00,,,0.00,VWS V15.00,2017-07-27 13:00:00,
2017-07-27 09:10:00,75.4,72.6,29.96,SSW,194,0.0,2.0,91,0.00,,,0.00,VWS V15.00,2017-07-27 13:10:00,
2017-07-27 09:20:00,75.8,72.0,29.95,SW,232,4.0,8.0,88,0.00,,,0.00,VWS V15.00,2017-07-27 13:20:00,
2017-07-27 09:30:00,75.8,72.0,29.95,SSW,209,4.0,8.0,88,0.00,,,0.00,VWS V15.00,2017-07-27 13:30:00,
2017-07-27 09:40:00,76.8,72.6,29.95,SSW,201,6.0,6.0,87,0.00,,,0.00,VWS V15.00,2017-07-27 13:40:00,
2017-07-27 09:50:00,76.8,73.0,29.94,SSW,200,0.0,9.0,88,0.00,,,0.00,VWS V15.00,2017-07-27 13:50:00,
2017-07-27 10:00:00,76.9,72.7,29.94,SSW,202,0.0,7.0,87,0.00,,,0.00,VWS V15.00,2017-07-27 14:00:00,
2017-07-27 10:10:00,77.1,72.9,29.94,SSW,195,0.0,6.0,87,0.00,,,0.00,VWS V15.00,2017-07-27 14:10:00,
2017-07-27 10:20:00,77.5,72.6,29.94,South,188,2.0,8.0,85,0.00,,,0.00,VWS V15.00,2017-07-27 14:20:00,
2017-07-27 10:30:00,77.6,72.7,29.94,South,175,4.0,8.0,85,0.00,,,0.00,VWS V15.00,2017-07-27 14:30:00,
2017-07-27 10:40:00,78.7,74.5,29.93,SSW,195,5.0,8.0,87,0.00,,,0.00,VWS V15.00,2017-07-27 14:40:00,
2017-07-27 10:50:00,79.3,73.7,29.92,SSW,203,5.0,8.0,83,0.00,,,0.00,VWS V15.00,2017-07-27 14:50:00,
2017-07-27 11:00:00,79.8,74.5,29.91,SSW,204,1.0,6.0,84,0.00,,,0.00,VWS V15.00,2017-07-27 15:00:00,
2017-07-27 11:10:00,80.1,74.8,29.91,SSW,204,1.0,6.0,84,0.00,,,0.00,VWS V15.00,2017-07-27 15:10:00,
2017-07-27 11:20:00,80.2,74.6,29.91,SSW,213,0.0,7.0,83,0.00,,,0.00,VWS V15.00,2017-07-27 15:20:00,
2017-07-27 11:30:00,80.9,74.9,29.91,SSW,211,0.0,5.0,82,0.00,,,0.00,VWS V15.00,2017-07-27 15:30:00,
2017-07-27 11:40:00,80.3,74.7,29.91,SSW,212,0.0,6.0,83,0.00,,,0.00,VWS V15.00,2017-07-27 15:40:00,
2017-07-27 11:50:00,80.1,74.5,29.90,SSW,211,7.0,8.0,83,0.00,,,0.00,VWS V15.00,2017-07-27 15:50:00,
2017-07-27 12:00:00,80.6,75.0,29.90,SSW,199,0.0,8.0,83,0.00,,,0.00,VWS V15.00,2017-07-27 16:00:00,
2017-07-27 12:10:00,81.8,76.1,29.90,SSW,211,0.0,10.0,83,0.00,,,0.00,VWS V15.00,2017-07-27 16:10:00,
2017-07-27 12:20:00,81.9,75.9,29.89,SSW,211,5.0,6.0,82,0.00,,,0.00,VWS V15.00,2017-07-27 16:20:00,
2017-07-27 12:30:00,81.5,75.8,29.89,SW,215,0.0,6.0,83,0.00,,,0.00,VWS V15.00,2017-07-27 16:30:00,
2017-07-27 12:40:00,81.9,75.9,29.88,SW,215,3.0,5.0,82,0.00,,,0.00,VWS V15.00,2017-07-27 16:40:00,
2017-07-27 12:50:00,82.2,76.2,29.88,SSW,210,0.0,5.0,82,0.00,,,0.00,VWS V15.00,2017-07-27 16:50:00,
2017-07-27 13:00:00,82.4,76.4,29.88,SSW,209,0.0,5.0,82,0.00,,,0.00,VWS V15.00,2017-07-27 17:00:00,
2017-07-27 13:10:00,82.7,77.0,29.87,SSW,209,1.0,5.0,83,0.00,,,0.00,VWS V15.00,2017-07-27 17:10:00,
2017-07-27 13:20:00,82.8,77.5,29.87,SSW,202,6.0,8.0,84,0.00,,,0.00,VWS V15.00,2017-07-27 17:20:00,
2017-07-27 13:30:00,82.2,75.8,29.87,SSW,205,0.0,7.0,81,0.00,,,0.00,VWS V15.00,2017-07-27 17:30:00,
2017-07-27 13:40:00,81.8,76.1,29.87,SSW,206,0.0,6.0,83,0.00,,,0.00,VWS V15.00,2017-07-27 17:40:00,
2017-07-27 13:50:00,81.4,75.7,29.86,SSW,206,0.0,1.0,83,0.00,,,0.00,VWS V15.00,2017-07-27 17:50:00,
2017-07-27 14:00:00,81.5,75.8,29.86,SSW,206,0.0,3.0,83,0.00,,,0.00,VWS V15.00,2017-07-27 18:00:00,
2017-07-27 14:10:00,81.3,76.4,29.86,SSW,206,0.0,0.0,85,0.00,,,0.00,VWS V15.00,2017-07-27 18:10:00,
2017-07-27 14:20:00,81.0,76.1,29.85,SSW,206,0.0,2.0,85,0.00,,,0.00,VWS V15.00,2017-07-27 18:20:00,
2017-07-27 14:30:00,80.8,75.9,29.85,SSW,206,0.0,1.0,85,0.00,,,0.00,VWS V15.00,2017-07-27 18:30:00,
2017-07-27 14:40:00,80.9,76.0,29.85,SSW,206,0.0,1.0,85,0.00,,,0.00,VWS V15.00,2017-07-27 18:40:00,
2017-07-27 14:50:00,80.7,75.8,29.85,SSW,206,0.0,1.0,85,0.00,,,0.00,VWS V15.00,2017-07-27 18:50:00,
2017-07-27 15:00:00,81.1,76.5,29.84,SSW,206,0.0,0.0,86,0.00,,,0.00,VWS V15.00,2017-07-27 19:00:00,
2017-07-27 15:10:00,81.4,76.8,29.84,SSW,206,0.0,3.0,86,0.00,,,0.00,VWS V15.00,2017-07-27 19:10:00,
2017-07-27 15:20:00,81.6,76.7,29.84,SSW,206,0.0,4.0,85,0.00,,,0.00,VWS V15.00,2017-07-27 19:20:00,
2017-07-27 15:30:00,81.7,76.8,29.84,SSW,206,0.0,1.0,85,0.00,,,0.00,VWS V15.00,2017-07-27 19:30:00,
2017-07-27 15:40:00,81.6,76.7,29.84,SSW,206,0.0,0.0,85,0.00,,,0.00,VWS V15.00,2017-07-27 19:40:00,
2017-07-27 15:50:00,81.5,76.6,29.83,SSW,206,0.0,1.0,85,0.00,,,0.00,VWS V15.00,2017-07-27 19:50:00,
2017-07-27 16:00:00,81.8,77.2,29.83,SSW,206,0.0,1.0,86,0.00,,,0.00,VWS V15.00,2017-07-27 20:00:00,
2017-07-27 16:10:00,81.6,77.0,29.82,SSW,206,0.0,0.0,86,0.00,,,0.00,VWS V15.00,2017-07-27 20:10:00,
2017-07-27 16:20:00,81.3,77.4,29.82,SSW,199,0.0,0.0,88,0.00,,,0.00,VWS V15.00,2017-07-27 20:20:00,
2017-07-27 16:30:00,81.4,77.2,29.82,SSW,199,0.0,1.0,87,0.00,,,0.00,VWS V15.00,2017-07-27 20:30:00,
2017-07-27 16:40:00,81.9,78.0,29.81,SSW,199,0.0,0.0,88,0.00,,,0.00,VWS V15.00,2017-07-27 20:40:00,
2017-07-27 16:50:00,82.2,77.6,29.81,SSW,199,0.0,5.0,86,0.00,,,0.00,VWS V15.00,2017-07-27 20:50:00,
2017-07-27 17:00:00,82.4,77.8,29.81,SSW,199,0.0,4.0,86,0.00,,,0.00,VWS V15.00,2017-07-27 21:00:00,
2017-07-27 17:10:00,82.4,77.8,29.81,SSW,199,0.0,5.0,86,0.00,,,0.00,VWS V15.00,2017-07-27 21:10:00,
2017-07-27 17:20:00,82.5,77.9,29.81,SSW,199,0.0,0.0,86,0.00,,,0.00,VWS V15.00,2017-07-27 21:20:00,
2017-07-27 17:30:00,82.4,77.4,29.81,SSW,199,1.0,5.0,85,0.00,,,0.00,VWS V15.00,2017-07-27 21:30:00,
2017-07-27 17:40:00,82.3,78.1,29.81,SSW,199,0.0,1.0,87,0.00,,,0.00,VWS V15.00,2017-07-27 21:40:00,
2017-07-27 17:50:00,81.9,77.3,29.80,SSW,199,0.0,1.0,86,0.00,,,0.00,VWS V15.00,2017-07-27 21:50:00,
2017-07-27 18:00:00,81.6,77.4,29.81,SSW,199,0.0,1.0,87,0.00,,,0.00,VWS V15.00,2017-07-27 22:00:00,
2017-07-27 18:10:00,81.3,77.1,29.80,SSW,199,0.0,0.0,87,0.00,,,0.00,VWS V15.00,2017-07-27 22:10:00,
2017-07-27 18:20:00,81.0,77.1,29.80,SSW,199,0.0,0.0,88,0.00,,,0.00,VWS V15.00,2017-07-27 22:20:00,
2017-07-27 18:30:00,80.6,76.7,29.81,SSW,199,0.0,0.0,88,0.00,,,0.00,VWS V15.00,2017-07-27 22:30:00,
2017-07-27 18:40:00,80.4,76.9,29.80,SSW,199,0.0,0.0,89,0.00,,,0.00,VWS V15.00,2017-07-27 22:40:00,
2017-07-27 18:50:00,80.4,77.2,29.80,SSW,199,0.0,0.0,90,0.00,,,0.00,VWS V15.00,2017-07-27 22:50:00,
2017-07-27 19:10:00,80.3,77.1,29.80,SE,138,0.0,0.0,90,0.00,,,0.00,VWS V15.00,2017-07-27 23:10:00,
2017-07-27 19:20:00,80.2,77.0,29.79,SE,138,0.0,0.0,90,0.00,,,0.00,VWS V15.00,2017-07-27 23:20:00,